Time;durP1;ratioP1;P1;durP2;ratioP2;P2;SDS_P1;SDS_P2;PMS_P1;PMS_P2;Temp;Humidity;BMP_temperature;BMP_pressure;BME280_temperature;BME280_humidity;BME280_pressure;Samples;Min_cycle;Max_cycle;Signal;HPM_P1;HPM_P2
2022/07/04 00:00:18;;;;;;;14.27;12.07;;;;;;;;;;5074069;28;20028;-76
2022/07/04 00:02:45;;;;;;;16.38;11.02;;;;;;;;;;5074250;28;20025;-77
2022/07/04 00:05:11;;;;;;;15.00;12.20;;;;;;;;;;5073733;28;20405;-76
2022/07/04 00:07:41;;;;;;;13.45;11.63;;;;;;;;;;5071939;28;20366;-76
2022/07/04 00:10:09;;;;;;;15.57;12.57;;;;;;;;;;5072928;28;20352;-76
2022/07/04 00:12:35;;;;;;;15.18;12.15;;;;;;;;;;5072917;28;20031;-76
2022/07/04 00:15:02;;;;;;;14.43;12.18;;;;;;;;;;5073236;28;20025;-76
2022/07/04 00:17:28;;;;;;;13.45;11.50;;;;;;;;;;5071866;28;20024;-76
2022/07/04 00:19:54;;;;;;;12.38;11.20;;;;;;;;;;5069569;28;20515;-76
2022/07/04 00:22:20;;;;;;;13.02;11.43;;;;;;;;;;5071010;28;20524;-76
2022/07/04 00:24:46;;;;;;;14.32;11.43;;;;;;;;;;5070522;28;20360;-76
2022/07/04 00:27:12;;;;;;;16.88;12.38;;;;;;;;;;5070519;28;20049;-76
2022/07/04 00:29:38;;;;;;;16.42;12.13;;;;;;;;;;5071025;28;20036;-76
2022/07/04 00:32:05;;;;;;;13.65;12.25;;;;;;;;;;5071008;28;20021;-76
2022/07/04 00:34:31;;;;;;;13.40;11.90;;;;;;;;;;5070872;28;20070;-76
2022/07/04 00:36:57;;;;;;;13.50;12.20;;;;;;;;;;5073076;28;20020;-76
2022/07/04 00:39:24;;;;;;;12.93;11.57;;;;;;;;;;5072673;28;20081;-76
2022/07/04 00:41:50;;;;;;;14.50;12.18;;;;;;;;;;5072742;28;20031;-77
2022/07/04 00:44:16;;;;;;;16.75;12.10;;;;;;;;;;5071708;28;20032;-76
2022/07/04 00:46:43;;;;;;;13.15;11.60;;;;;;;;;;5072626;28;20047;-76
2022/07/04 00:49:10;;;;;;;13.38;11.98;;;;;;;;;;5073405;28;20374;-77
2022/07/04 00:51:37;;;;;;;13.45;12.07;;;;;;;;;;5072639;28;20440;-76
2022/07/04 00:54:05;;;;;;;13.75;12.15;;;;;;;;;;5072954;28;20104;-77
2022/07/04 00:56:31;;;;;;;16.13;13.23;;;;;;;;;;5072323;28;20025;-77
2022/07/04 00:58:59;;;;;;;15.77;13.07;;;;;;;;;;5073308;28;20059;-77
2022/07/04 01:01:25;;;;;;;15.38;12.65;;;;;;;;;;5073532;28;20025;-77
2022/07/04 01:03:52;;;;;;;15.32;12.25;;;;;;;;;;5073655;28;20078;-77
2022/07/04 01:06:19;;;;;;;12.27;10.98;;;;;;;;;;5073275;28;20040;-76
2022/07/04 01:08:46;;;;;;;13.15;11.70;;;;;;;;;;5073074;28;20035;-76
2022/07/04 01:11:12;;;;;;;17.08;11.68;;;;;;;;;;5073528;28;20017;-76
2022/07/04 01:13:40;;;;;;;13.80;11.50;;;;;;;;;;5072089;28;20021;-76
2022/07/04 01:16:07;;;;;;;15.30;11.48;;;;;;;;;;5073164;28;20024;-76
2022/07/04 01:18:33;;;;;;;12.35;11.07;;;;;;;;;;5073078;28;20459;-76
2022/07/04 01:20:59;;;;;;;13.27;11.88;;;;;;;;;;5072003;28;20379;-76
2022/07/04 01:23:25;;;;;;;12.85;11.30;;;;;;;;;;5073047;28;20029;-76
2022/07/04 01:25:52;;;;;;;13.05;11.82;;;;;;;;;;5076498;28;20040;-76
2022/07/04 01:28:22;;;;;;;14.90;12.88;;;;;;;;;;5075924;28;20135;-76
2022/07/04 01:30:48;;;;;;;13.75;11.77;;;;;;;;;;5076980;28;20020;-76
2022/07/04 01:33:17;;;;;;;13.27;11.88;;;;;;;;;;5077166;28;20024;-76
2022/07/04 01:35:43;;;;;;;12.90;11.50;;;;;;;;;;5077203;28;20028;-76
2022/07/04 01:38:09;;;;;;;16.63;12.93;;;;;;;;;;5075885;28;20039;-76
2022/07/04 01:40:36;;;;;;;14.20;12.80;;;;;;;;;;5077169;28;20021;-76
2022/07/04 01:43:02;;;;;;;13.25;11.85;;;;;;;;;;5075376;28;20471;-76
2022/07/04 01:45:28;;;;;;;13.57;12.18;;;;;;;;;;5076535;28;20021;-76
2022/07/04 01:47:54;;;;;;;15.45;12.45;;;;;;;;;;5076794;28;20426;-76
2022/07/04 01:50:23;;;;;;;14.45;12.35;;;;;;;;;;5076464;28;20073;-76
2022/07/04 01:52:49;;;;;;;14.98;13.32;;;;;;;;;;5076669;28;20375;-76
2022/07/04 01:55:15;;;;;;;15.35;12.57;;;;;;;;;;5076672;28;20388;-77
2022/07/04 01:57:42;;;;;;;14.68;12.23;;;;;;;;;;5076367;28;20031;-75
2022/07/04 02:02:53;;;;;;;14.35;12.88;;;;;;;;;;5076614;28;20514;-75
2022/07/04 02:05:20;;;;;;;15.52;12.57;;;;;;;;;;5076107;28;20081;-77
2022/07/04 02:07:46;;;;;;;13.88;12.10;;;;;;;;;;5075206;28;20530;-77
2022/07/04 02:10:12;;;;;;;13.05;11.73;;;;;;;;;;5075905;28;20036;-77
2022/07/04 02:15:23;;;;;;;15.00;12.85;;;;;;;;;;5076271;28;20035;-77
2022/07/04 02:17:49;;;;;;;15.80;12.35;;;;;;;;;;5076052;28;20074;-77
2022/07/04 02:20:15;;;;;;;13.25;11.88;;;;;;;;;;5076270;28;20016;-77
2022/07/04 02:22:41;;;;;;;19.33;11.60;;;;;;;;;;5075941;28;20017;-77
2022/07/04 02:25:07;;;;;;;15.32;12.30;;;;;;;;;;5075869;28;20165;-77
2022/07/04 02:27:34;;;;;;;17.52;11.88;;;;;;;;;;5075953;28;20040;-77
2022/07/04 02:30:00;;;;;;;14.60;12.57;;;;;;;;;;5075946;28;20021;-77
2022/07/04 02:32:26;;;;;;;15.30;11.90;;;;;;;;;;5076087;28;20025;-77
2022/07/04 02:34:52;;;;;;;14.40;12.85;;;;;;;;;;5075795;28;20164;-77
2022/07/04 02:37:18;;;;;;;12.98;11.50;;;;;;;;;;5074715;28;20388;-77
2022/07/04 02:39:44;;;;;;;15.93;11.85;;;;;;;;;;5075652;28;20452;-77
2022/07/04 02:42:11;;;;;;;16.80;12.70;;;;;;;;;;5075909;28;20451;-76
2022/07/04 02:44:37;;;;;;;16.05;12.27;;;;;;;;;;5075440;28;20021;-76
2022/07/04 02:47:03;;;;;;;16.50;11.85;;;;;;;;;;5075713;28;20029;-76
2022/07/04 02:49:29;;;;;;;15.13;12.60;;;;;;;;;;5075764;28;20027;-76
2022/07/04 02:51:55;;;;;;;16.23;10.93;;;;;;;;;;5075535;28;20098;-76
2022/07/04 02:54:21;;;;;;;14.77;12.18;;;;;;;;;;5075617;28;20028;-77
2022/07/04 02:56:48;;;;;;;14.45;12.57;;;;;;;;;;5075809;28;20030;-77
2022/07/04 02:59:14;;;;;;;15.32;11.82;;;;;;;;;;5075463;28;20518;-77
2022/07/04 03:01:40;;;;;;;13.65;11.85;;;;;;;;;;5075712;28;20024;-76
2022/07/04 03:04:06;;;;;;;15.20;12.32;;;;;;;;;;5075513;28;20104;-76
2022/07/04 03:06:32;;;;;;;15.35;12.43;;;;;;;;;;5075155;28;20029;-76
2022/07/04 03:08:58;;;;;;;12.70;11.30;;;;;;;;;;5075315;28;20020;-77
2022/07/04 03:11:24;;;;;;;13.55;12.20;;;;;;;;;;5075791;28;20177;-76
2022/07/04 03:13:51;;;;;;;12.45;11.25;;;;;;;;;;5073943;28;20024;-76
2022/07/04 03:16:17;;;;;;;13.63;11.57;;;;;;;;;;5074187;28;20020;-77
2022/07/04 03:18:43;;;;;;;12.57;11.48;;;;;;;;;;5075407;28;20024;-77
2022/07/04 03:21:09;;;;;;;12.93;11.13;;;;;;;;;;5074997;28;20020;-76
2022/07/04 03:23:35;;;;;;;14.43;11.50;;;;;;;;;;5074938;28;20694;-76
2022/07/04 03:26:02;;;;;;;12.57;10.80;;;;;;;;;;5075150;28;20031;-77
2022/07/04 03:28:28;;;;;;;15.25;10.48;;;;;;;;;;5074994;28;20071;-77
2022/07/04 03:30:54;;;;;;;13.63;10.70;;;;;;;;;;5075133;28;20073;-77
2022/07/04 03:33:20;;;;;;;16.70;11.38;;;;;;;;;;5074782;28;20020;-77
2022/07/04 03:35:47;;;;;;;13.10;11.77;;;;;;;;;;5074493;28;20026;-76
2022/07/04 03:38:13;;;;;;;15.48;10.98;;;;;;;;;;5074988;28;20493;-76
2022/07/04 03:40:39;;;;;;;14.52;11.20;;;;;;;;;;5074545;28;20071;-76
2022/07/04 03:43:09;;;;;;;13.98;10.80;;;;;;;;;;5074624;28;20021;-76
2022/07/04 03:45:35;;;;;;;12.05;10.15;;;;;;;;;;5074752;28;20101;-76
2022/07/04 03:48:03;;;;;;;11.63;10.52;;;;;;;;;;5072888;28;20429;-76
2022/07/04 03:50:29;;;;;;;14.60;10.68;;;;;;;;;;5074980;28;20020;-77
2022/07/04 03:52:55;;;;;;;15.10;10.45;;;;;;;;;;5074394;28;20020;-76
2022/07/04 03:55:21;;;;;;;12.15;10.95;;;;;;;;;;5073649;28;20033;-77
2022/07/04 03:57:47;;;;;;;13.32;10.80;;;;;;;;;;5074371;28;20479;-77
2022/07/04 04:00:14;;;;;;;14.85;10.23;;;;;;;;;;5074221;28;20375;-77
2022/07/04 04:02:40;;;;;;;13.05;10.52;;;;;;;;;;5072898;28;20023;-77
2022/07/04 04:07:52;;;;;;;12.63;10.75;;;;;;;;;;5074469;28;20097;-77
2022/07/04 04:10:18;;;;;;;10.98;9.88;;;;;;;;;;5072028;28;20032;-76
2022/07/04 04:12:44;;;;;;;12.98;11.68;;;;;;;;;;5073001;28;20352;-77
2022/07/04 04:15:10;;;;;;;14.20;10.80;;;;;;;;;;5074011;28;20379;-75
2022/07/04 04:17:36;;;;;;;11.50;10.27;;;;;;;;;;5073907;28;20500;-77
2022/07/04 04:20:02;;;;;;;10.82;9.70;;;;;;;;;;5074211;28;20455;-76
2022/07/04 04:22:29;;;;;;;25.23;10.40;;;;;;;;;;5073926;28;20360;-77
2022/07/04 04:24:55;;;;;;;18.52;9.70;;;;;;;;;;5074105;28;20025;-77
2022/07/04 04:27:21;;;;;;;14.88;9.90;;;;;;;;;;5073972;28;20495;-77
2022/07/04 04:29:48;;;;;;;11.93;9.82;;;;;;;;;;5072738;28;20021;-77
2022/07/04 04:32:14;;;;;;;11.00;9.90;;;;;;;;;;5073887;28;20021;-77
2022/07/04 04:34:41;;;;;;;16.65;10.73;;;;;;;;;;5074044;28;20032;-77
2022/07/04 04:37:07;;;;;;;11.45;10.13;;;;;;;;;;5073346;28;20024;-77
2022/07/04 04:39:33;;;;;;;11.98;10.77;;;;;;;;;;5073992;28;20490;-77
2022/07/04 04:41:59;;;;;;;15.65;10.85;;;;;;;;;;5073027;28;20478;-77
2022/07/04 04:44:25;;;;;;;11.90;10.63;;;;;;;;;;5072764;28;20025;-77
2022/07/04 04:46:51;;;;;;;12.60;10.82;;;;;;;;;;5073333;28;20028;-76
2022/07/04 04:49:18;;;;;;;15.40;10.30;;;;;;;;;;5073425;28;20016;-76
2022/07/04 04:51:44;;;;;;;14.30;11.55;;;;;;;;;;5073664;28;20049;-76
2022/07/04 04:54:10;;;;;;;12.68;11.32;;;;;;;;;;5073579;28;20029;-76
2022/07/04 04:56:36;;;;;;;15.75;11.07;;;;;;;;;;5073780;28;20029;-77
2022/07/04 04:59:03;;;;;;;15.10;11.50;;;;;;;;;;5072739;28;20021;-77
2022/07/04 05:01:29;;;;;;;14.50;11.32;;;;;;;;;;5072471;28;20467;-78
2022/07/04 05:03:55;;;;;;;18.80;11.60;;;;;;;;;;5071660;28;20467;-78
2022/07/04 05:06:21;;;;;;;14.68;11.30;;;;;;;;;;5072220;28;20520;-78
2022/07/04 05:08:48;;;;;;;13.73;10.88;;;;;;;;;;5073014;28;20028;-78
2022/07/04 05:11:14;;;;;;;11.77;10.68;;;;;;;;;;5073640;28;20027;-77
2022/07/04 05:13:40;;;;;;;12.02;10.70;;;;;;;;;;5073264;28;20039;-78
2022/07/04 05:16:06;;;;;;;15.13;11.98;;;;;;;;;;5072085;28;20115;-78
2022/07/04 05:18:32;;;;;;;12.85;11.45;;;;;;;;;;5073509;28;20082;-77
2022/07/04 05:20:59;;;;;;;14.40;12.00;;;;;;;;;;5073436;28;20040;-78
2022/07/04 05:23:25;;;;;;;14.45;12.65;;;;;;;;;;5073582;28;20032;-78
2022/07/04 05:25:51;;;;;;;16.48;11.27;;;;;;;;;;5073088;28;20034;-78
2022/07/04 05:28:17;;;;;;;12.77;11.40;;;;;;;;;;5073580;28;20536;-78
2022/07/04 05:30:43;;;;;;;13.20;11.80;;;;;;;;;;5073507;28;20079;-78
2022/07/04 05:33:11;;;;;;;13.30;11.25;;;;;;;;;;5071916;28;20024;-78
2022/07/04 05:35:37;;;;;;;12.40;10.88;;;;;;;;;;5073695;28;20036;-78
2022/07/04 05:38:03;;;;;;;13.05;11.80;;;;;;;;;;5073130;28;20028;-78
2022/07/04 05:40:30;;;;;;;13.05;11.65;;;;;;;;;;5073058;28;20016;-78
2022/07/04 05:42:59;;;;;;;13.73;11.57;;;;;;;;;;5073359;28;20016;-78
2022/07/04 05:45:25;;;;;;;18.08;12.20;;;;;;;;;;5073261;28;20475;-78
2022/07/04 05:47:51;;;;;;;14.77;11.63;;;;;;;;;;5071697;28;20044;-78
2022/07/04 05:50:17;;;;;;;12.73;11.40;;;;;;;;;;5073613;28;20021;-78
2022/07/04 05:52:44;;;;;;;17.95;13.30;;;;;;;;;;5073508;28;20031;-78
2022/07/04 05:55:10;;;;;;;17.55;13.13;;;;;;;;;;5072760;28;20031;-77
2022/07/04 05:57:36;;;;;;;16.85;11.70;;;;;;;;;;5072901;28;20368;-79
2022/07/04 06:00:03;;;;;;;15.60;12.23;;;;;;;;;;5073160;28;20448;-77
2022/07/04 06:02:29;;;;;;;24.92;11.68;;;;;;;;;;5072801;28;20028;-78
2022/07/04 06:04:56;;;;;;;14.88;11.77;;;;;;;;;;5072803;28;20025;-78
2022/07/04 06:07:22;;;;;;;19.83;11.95;;;;;;;;;;5072831;28;20023;-78
2022/07/04 06:09:48;;;;;;;19.48;11.82;;;;;;;;;;5072783;28;20013;-78
2022/07/04 06:12:14;;;;;;;14.38;11.50;;;;;;;;;;5076103;28;20020;-78
2022/07/04 06:14:40;;;;;;;12.65;10.55;;;;;;;;;;5076533;28;20021;-79
2022/07/04 06:17:06;;;;;;;13.85;11.38;;;;;;;;;;5076346;28;20082;-78
2022/07/04 06:19:32;;;;;;;14.20;10.13;;;;;;;;;;5076553;28;20028;-78
2022/07/04 06:21:58;;;;;;;14.25;11.23;;;;;;;;;;5076657;28;20020;-78
2022/07/04 06:24:25;;;;;;;17.23;10.93;;;;;;;;;;5076947;28;20362;-78
2022/07/04 06:26:51;;;;;;;11.38;10.27;;;;;;;;;;5075978;28;20480;-78
2022/07/04 06:29:17;;;;;;;14.00;10.50;;;;;;;;;;5075709;28;20477;-79
2022/07/04 06:31:43;;;;;;;18.00;10.43;;;;;;;;;;5075752;28;20477;-78
2022/07/04 06:36:54;;;;;;;15.88;11.30;;;;;;;;;;5074547;28;20442;-78
2022/07/04 06:39:20;;;;;;;16.20;11.60;;;;;;;;;;5075220;28;20478;-78
2022/07/04 06:41:46;;;;;;;16.42;12.05;;;;;;;;;;5075782;28;20025;-78
2022/07/04 06:44:12;;;;;;;13.00;10.75;;;;;;;;;;5075141;28;20073;-78
2022/07/04 06:46:38;;;;;;;14.73;10.75;;;;;;;;;;5075384;28;20028;-78
2022/07/04 06:49:05;;;;;;;14.65;12.07;;;;;;;;;;5074642;28;20515;-78
2022/07/04 06:51:31;;;;;;;17.40;11.05;;;;;;;;;;5075904;28;20141;-78
2022/07/04 06:53:57;;;;;;;18.38;11.75;;;;;;;;;;5075644;28;20021;-78
2022/07/04 06:56:23;;;;;;;14.23;11.75;;;;;;;;;;5075899;28;20021;-78
2022/07/04 06:58:50;;;;;;;13.50;12.20;;;;;;;;;;5075490;28;20103;-78
2022/07/04 07:01:16;;;;;;;15.07;11.95;;;;;;;;;;5075803;28;20020;-78
2022/07/04 07:03:42;;;;;;;17.02;13.15;;;;;;;;;;5075762;28;20101;-78
2022/07/04 07:06:08;;;;;;;13.80;11.77;;;;;;;;;;5074134;28;20082;-78
2022/07/04 07:08:34;;;;;;;19.23;11.80;;;;;;;;;;5075348;28;20032;-78
2022/07/04 07:11:13;;;;;;;17.83;13.32;;;;;;;;;;5075308;28;20021;-78
2022/07/04 07:13:42;;;;;;;16.17;13.43;;;;;;;;;;5075989;28;20044;-79
2022/07/04 07:16:08;;;;;;;14.85;13.18;;;;;;;;;;5075723;28;20095;-78
2022/07/04 07:18:34;;;;;;;17.60;13.70;;;;;;;;;;5075185;28;20027;-78
2022/07/04 07:21:01;;;;;;;14.63;12.38;;;;;;;;;;5074093;28;20061;-77
2022/07/04 07:23:27;;;;;;;17.35;13.07;;;;;;;;;;5074423;28;20032;-78
2022/07/04 07:25:53;;;;;;;19.70;14.02;;;;;;;;;;5074848;28;20033;-78
2022/07/04 07:28:19;;;;;;;15.32;13.75;;;;;;;;;;5075374;28;20049;-77
2022/07/04 07:30:45;;;;;;;16.38;12.73;;;;;;;;;;5074933;28;20027;-78
2022/07/04 07:33:11;;;;;;;14.05;11.90;;;;;;;;;;5075160;28;20021;-78
2022/07/04 07:35:38;;;;;;;14.05;11.77;;;;;;;;;;5075088;28;20028;-78
2022/07/04 07:38:06;;;;;;;16.45;12.85;;;;;;;;;;5074671;28;20384;-77
2022/07/04 07:40:33;;;;;;;16.60;12.73;;;;;;;;;;5074651;28;20078;-77
2022/07/04 07:42:59;;;;;;;16.73;13.63;;;;;;;;;;5074992;28;20025;-77
2022/07/04 07:45:25;;;;;;;14.02;12.48;;;;;;;;;;5074810;28;20478;-78
2022/07/04 07:47:51;;;;;;;14.90;12.50;;;;;;;;;;5073265;28;20028;-77
2022/07/04 07:50:17;;;;;;;14.40;12.90;;;;;;;;;;5074798;28;20025;-77
2022/07/04 07:52:43;;;;;;;18.73;11.40;;;;;;;;;;5074628;28;20020;-78
2022/07/04 07:55:10;;;;;;;14.00;11.75;;;;;;;;;;5074200;28;20029;-76
2022/07/04 07:57:36;;;;;;;15.68;10.90;;;;;;;;;;5074366;28;20357;-77
2022/07/04 08:00:02;;;;;;;16.10;11.68;;;;;;;;;;5074069;28;20029;-77
2022/07/04 08:05:18;;;;;;;13.68;10.70;;;;;;;;;;5054486;28;20044;-76
2022/07/04 08:07:44;;;;;;;15.52;11.10;;;;;;;;;;5074173;28;20013;-77
2022/07/04 08:10:10;;;;;;;12.93;11.57;;;;;;;;;;5073149;28;20020;-77
2022/07/04 08:12:36;;;;;;;13.13;10.88;;;;;;;;;;5074659;28;20475;-77
2022/07/04 08:15:03;;;;;;;15.27;10.85;;;;;;;;;;5073719;28;20077;-77
2022/07/04 08:17:29;;;;;;;14.45;11.52;;;;;;;;;;5074330;28;20075;-74
2022/07/04 08:19:55;;;;;;;12.05;10.35;;;;;;;;;;5074259;28;20028;-76
2022/07/04 08:22:22;;;;;;;14.18;10.82;;;;;;;;;;5073864;28;20021;-76
2022/07/04 08:24:48;;;;;;;15.90;10.13;;;;;;;;;;5074099;28;20020;-78
2022/07/04 08:27:14;;;;;;;13.77;10.18;;;;;;;;;;5072593;28;20044;-76
2022/07/04 08:29:41;;;;;;;14.10;10.45;;;;;;;;;;5073513;28;20079;-76
2022/07/04 08:32:10;;;;;;;12.68;10.50;;;;;;;;;;5073824;28;20071;-76
2022/07/04 08:34:36;;;;;;;10.52;9.43;;;;;;;;;;5073350;28;20491;-76
2022/07/04 08:37:02;;;;;;;13.82;9.10;;;;;;;;;;5073814;28;20471;-76
2022/07/04 08:39:29;;;;;;;11.75;9.05;;;;;;;;;;5074002;28;20032;-76
2022/07/04 08:41:56;;;;;;;10.45;8.98;;;;;;;;;;5073561;28;20071;-75
2022/07/04 08:44:24;;;;;;;13.32;10.13;;;;;;;;;;5073421;28;20021;-77
2022/07/04 08:46:52;;;;;;;11.05;8.63;;;;;;;;;;5073826;28;20036;-76
2022/07/04 08:49:21;;;;;;;10.32;7.60;;;;;;;;;;5073538;28;20128;-75
2022/07/04 08:51:52;;;;;;;12.23;8.52;;;;;;;;;;5073549;28;20478;-76
2022/07/04 08:59:50;;;;;;;18.73;8.63;;;;;;;;;;5073656;28;20051;-76
2022/07/04 09:02:20;;;;;;;20.95;8.68;;;;;;;;;;5073783;28;20013;-75
2022/07/04 09:04:47;;;;;;;9.60;8.07;;;;;;;;;;5073451;28;20107;-75
2022/07/04 09:07:13;;;;;;;12.23;8.73;;;;;;;;;;5073449;28;20098;-76
2022/07/04 09:09:40;;;;;;;11.80;8.07;;;;;;;;;;5073855;28;20031;-76
2022/07/04 09:12:07;;;;;;;11.00;8.48;;;;;;;;;;5073497;28;20032;-76
2022/07/04 09:14:33;;;;;;;10.52;8.40;;;;;;;;;;5073365;28;20025;-76
2022/07/04 09:17:00;;;;;;;10.30;8.80;;;;;;;;;;5073386;28;20020;-76
2022/07/04 09:19:26;;;;;;;9.90;8.80;;;;;;;;;;5073619;28;20029;-76
2022/07/04 09:21:52;;;;;;;11.07;8.95;;;;;;;;;;5072284;28;20440;-76
2022/07/04 09:24:39;;;;;;;10.88;9.88;;;;;;;;;;5073448;28;20520;-76
2022/07/04 09:27:05;;;;;;;9.25;8.25;;;;;;;;;;5065803;28;20041;-75
2022/07/04 09:29:32;;;;;;;11.68;9.45;;;;;;;;;;5073519;28;20074;-76
2022/07/04 09:31:59;;;;;;;7.22;6.50;;;;;;;;;;5072978;28;20512;-76
2022/07/04 09:34:27;;;;;;;7.72;6.70;;;;;;;;;;5073022;28;20078;-74
2022/07/04 09:36:55;;;;;;;9.93;7.68;;;;;;;;;;5073243;28;20075;-74
2022/07/04 09:39:22;;;;;;;10.25;8.38;;;;;;;;;;5071700;28;20112;-74
2022/07/04 09:42:01;;;;;;;10.52;7.35;;;;;;;;;;5073346;28;20017;-76
2022/07/04 09:44:29;;;;;;;13.90;8.18;;;;;;;;;;5072020;28;20017;-76
2022/07/04 09:46:56;;;;;;;10.77;9.30;;;;;;;;;;5076104;28;20523;-76
2022/07/04 09:49:23;;;;;;;10.57;7.47;;;;;;;;;;5075877;28;20379;-75
2022/07/04 09:51:50;;;;;;;9.70;7.82;;;;;;;;;;5075704;28;20459;-76
2022/07/04 09:54:19;;;;;;;9.35;7.95;;;;;;;;;;5075238;28;20039;-77
2022/07/04 09:56:47;;;;;;;9.88;7.97;;;;;;;;;;5075708;28;20046;-76
2022/07/04 09:59:13;;;;;;;9.88;8.23;;;;;;;;;;5075344;28;20048;-77
2022/07/04 10:01:39;;;;;;;10.35;9.15;;;;;;;;;;5076567;28;20421;-76
2022/07/04 10:04:06;;;;;;;13.63;8.30;;;;;;;;;;5076618;28;20031;-77
2022/07/04 10:06:33;;;;;;;10.30;8.52;;;;;;;;;;5076356;28;20020;-78
2022/07/04 10:09:09;;;;;;;20.48;9.63;;;;;;;;;;5076733;28;20035;-77
2022/07/04 10:11:36;;;;;;;10.68;9.48;;;;;;;;;;5076972;28;20103;-75
2022/07/04 10:14:03;;;;;;;15.38;10.27;;;;;;;;;;5076655;28;20020;-76
2022/07/04 10:16:30;;;;;;;9.90;8.85;;;;;;;;;;5076936;28;20156;-76
2022/07/04 10:18:56;;;;;;;11.20;9.82;;;;;;;;;;5076566;28;20364;-76
2022/07/04 10:21:23;;;;;;;9.63;8.40;;;;;;;;;;5076384;28;20044;-77
2022/07/04 10:23:51;;;;;;;12.55;10.63;;;;;;;;;;5076460;28;20455;-77
2022/07/04 10:26:21;;;;;;;13.18;9.00;;;;;;;;;;5076579;28;20034;-77
2022/07/04 10:28:47;;;;;;;11.60;10.35;;;;;;;;;;5074562;28;20052;-76
2022/07/04 10:31:14;;;;;;;10.10;7.57;;;;;;;;;;5076335;28;20039;-77
2022/07/04 10:33:41;;;;;;;11.00;9.38;;;;;;;;;;5076205;28;20025;-77
2022/07/04 10:36:16;;;;;;;7.88;7.07;;;;;;;;;;5076309;28;20090;-76
2022/07/04 10:38:53;;;;;;;9.70;7.13;;;;;;;;;;5076228;28;20017;-77
2022/07/04 10:41:23;;;;;;;9.77;7.28;;;;;;;;;;5075536;28;20048;-76
2022/07/04 10:43:49;;;;;;;11.27;8.30;;;;;;;;;;5075858;28;20036;-76
2022/07/04 10:46:15;;;;;;;9.38;8.55;;;;;;;;;;5076203;28;20032;-76
2022/07/04 10:49:00;;;;;;;14.20;10.30;;;;;;;;;;5075439;28;20016;-77
2022/07/04 10:51:39;;;;;;;10.48;9.00;;;;;;;;;;5075972;28;20348;-77
2022/07/04 10:54:10;;;;;;;9.32;8.32;;;;;;;;;;5074648;28;20020;-77
2022/07/04 10:56:36;;;;;;;11.82;8.68;;;;;;;;;;5074169;28;20418;-77
2022/07/04 10:59:11;;;;;;;16.42;9.65;;;;;;;;;;5075421;28;20023;-78
2022/07/04 11:01:38;;;;;;;14.13;9.30;;;;;;;;;;5075451;28;20019;-77
2022/07/04 11:04:04;;;;;;;10.95;9.85;;;;;;;;;;5075825;28;20021;-78
2022/07/04 11:06:31;;;;;;;15.88;9.73;;;;;;;;;;5075652;28;20080;-77
2022/07/04 11:09:15;;;;;;;10.65;9.55;;;;;;;;;;5075587;28;20036;-76
2022/07/04 11:11:49;;;;;;;13.50;9.63;;;;;;;;;;5074346;28;20020;-77
2022/07/04 11:14:34;;;;;;;12.13;9.07;;;;;;;;;;5075582;28;20501;-77
2022/07/04 11:17:00;;;;;;;11.40;9.20;;;;;;;;;;5075061;28;20027;-78
2022/07/04 11:19:30;;;;;;;10.93;9.80;;;;;;;;;;5075447;28;20082;-76
2022/07/04 11:21:56;;;;;;;12.20;9.80;;;;;;;;;;5075351;28;20370;-77
2022/07/04 11:24:23;;;;;;;11.02;9.65;;;;;;;;;;5073708;28;20020;-77
2022/07/04 11:26:52;;;;;;;10.93;9.82;;;;;;;;;;5075042;28;20495;-77
2022/07/04 11:29:18;;;;;;;11.95;9.70;;;;;;;;;;5074930;28;20406;-77
2022/07/04 11:31:49;;;;;;;12.65;9.30;;;;;;;;;;5074850;28;20016;-76
2022/07/04 11:34:15;;;;;;;13.13;9.48;;;;;;;;;;5073540;28;20016;-77
2022/07/04 11:36:42;;;;;;;12.05;10.43;;;;;;;;;;5074598;28;20447;-76
2022/07/04 11:39:11;;;;;;;10.98;9.85;;;;;;;;;;5074544;28;20016;-76
2022/07/04 11:47:08;;;;;;;12.80;11.40;;;;;;;;;;5074593;28;20508;-75
2022/07/04 11:49:35;;;;;;;11.77;10.55;;;;;;;;;;5073752;28;20086;-75
2022/07/04 11:52:01;;;;;;;12.15;10.93;;;;;;;;;;5074123;28;20036;-76
2022/07/04 11:54:27;;;;;;;12.85;10.35;;;;;;;;;;5074730;28;20024;-75
2022/07/04 11:57:08;;;;;;;12.35;11.15;;;;;;;;;;5074679;28;20151;-74
2022/07/04 11:59:34;;;;;;;11.77;10.60;;;;;;;;;;5074153;28;20099;-76
2022/07/04 12:02:11;;;;;;;11.43;10.32;;;;;;;;;;5074638;28;20038;-75
2022/07/04 12:04:38;;;;;;;12.63;8.80;;;;;;;;;;5074507;28;20020;-75
2022/07/04 12:07:14;;;;;;;10.68;8.00;;;;;;;;;;5073940;28;20115;-75
2022/07/04 12:09:41;;;;;;;8.95;7.35;;;;;;;;;;5074131;28;20035;-76
2022/07/04 12:12:07;;;;;;;9.38;8.45;;;;;;;;;;5074179;28;20494;-75
2022/07/04 12:14:33;;;;;;;14.80;10.05;;;;;;;;;;5074337;28;20020;-76
2022/07/04 12:17:09;;;;;;;12.45;8.35;;;;;;;;;;5074196;28;20039;-75
2022/07/04 12:19:36;;;;;;;10.30;7.95;;;;;;;;;;5073926;28;20021;-76
2022/07/04 12:22:02;;;;;;;8.85;7.40;;;;;;;;;;5074601;28;20020;-76
2022/07/04 12:24:28;;;;;;;9.68;7.72;;;;;;;;;;5073869;28;20082;-76
2022/07/04 12:26:55;;;;;;;10.07;7.28;;;;;;;;;;5072453;28;20052;-75
2022/07/04 12:29:22;;;;;;;11.80;7.72;;;;;;;;;;5073753;28;20024;-76
2022/07/04 12:31:52;;;;;;;9.70;6.53;;;;;;;;;;5074027;28;20028;-77
2022/07/04 12:34:18;;;;;;;11.32;8.00;;;;;;;;;;5072375;28;20028;-75
2022/07/04 12:37:08;;;;;;;9.02;8.10;;;;;;;;;;5073710;28;20020;-77
2022/07/04 12:39:37;;;;;;;8.73;7.88;;;;;;;;;;5073707;28;20013;-78
2022/07/04 12:42:04;;;;;;;13.50;9.25;;;;;;;;;;5073429;28;20383;-77
2022/07/04 12:44:30;;;;;;;14.30;7.70;;;;;;;;;;5073740;28;20017;-76
2022/07/04 12:46:57;;;;;;;11.23;8.20;;;;;;;;;;5073530;28;20024;-77
2022/07/04 12:49:23;;;;;;;12.27;7.00;;;;;;;;;;5073748;28;20497;-75
2022/07/04 12:51:50;;;;;;;9.82;8.30;;;;;;;;;;5073690;28;20032;-77
2022/07/04 12:54:16;;;;;;;10.80;7.50;;;;;;;;;;5072092;28;20107;-76
2022/07/04 12:56:45;;;;;;;8.93;7.30;;;;;;;;;;5073674;28;20024;-76
2022/07/04 12:59:12;;;;;;;8.10;7.25;;;;;;;;;;5073669;28;20035;-77
2022/07/04 13:01:39;;;;;;;9.32;7.28;;;;;;;;;;5073248;28;20483;-77
2022/07/04 13:04:05;;;;;;;10.98;6.82;;;;;;;;;;5073487;28;20052;-76
2022/07/04 13:06:31;;;;;;;15.50;14.02;;;;;;;;;;5073346;28;20111;-76
2022/07/04 13:08:58;;;;;;;10.02;6.97;;;;;;;;;;5073215;28;20479;-78
2022/07/04 13:14:09;;;;;;;11.63;10.45;;;;;;;;;;5073344;28;20039;-77
2022/07/04 13:16:36;;;;;;;12.35;11.15;;;;;;;;;;5073010;28;20104;-77
2022/07/04 13:19:02;;;;;;;20.77;18.70;;;;;;;;;;5073148;28;20099;-76
2022/07/04 13:21:28;;;;;;;17.60;10.57;;;;;;;;;;5075673;28;20024;-77
2022/07/04 13:23:54;;;;;;;11.63;10.50;;;;;;;;;;5076862;28;20086;-75
2022/07/04 13:26:21;;;;;;;47.92;23.17;;;;;;;;;;5076520;28;20033;-77
2022/07/04 13:28:47;;;;;;;141.02;129.52;;;;;;;;;;5074938;28;20045;-77
2022/07/04 13:31:14;;;;;;;165.75;151.52;;;;;;;;;;5076666;28;20047;-77
2022/07/04 13:33:41;;;;;;;235.98;213.63;;;;;;;;;;5076502;28;20024;-75
2022/07/04 13:36:07;;;;;;;164.00;146.98;;;;;;;;;;5076397;28;20108;-76
2022/07/04 13:38:33;;;;;;;157.50;144.45;;;;;;;;;;5076632;28;20073;-75
2022/07/04 13:40:59;;;;;;;341.80;307.63;;;;;;;;;;5076642;28;20012;-75
2022/07/04 13:43:27;;;;;;;37.67;20.25;;;;;;;;;;5074679;28;20013;-75
2022/07/04 13:45:54;;;;;;;44.42;20.25;;;;;;;;;;5076216;28;20043;-76
2022/07/04 13:48:21;;;;;;;57.05;28.33;;;;;;;;;;5076072;28;20082;-76
2022/07/04 13:50:47;;;;;;;43.47;20.77;;;;;;;;;;5074886;28;20347;-75
2022/07/04 13:53:13;;;;;;;44.78;19.52;;;;;;;;;;5076411;28;20019;-76
2022/07/04 13:55:40;;;;;;;43.22;21.25;;;;;;;;;;5076312;28;20485;-77
2022/07/04 13:58:07;;;;;;;43.50;24.35;;;;;;;;;;5073301;28;20103;-77
2022/07/04 14:00:33;;;;;;;48.55;25.02;;;;;;;;;;5075993;28;20415;-77
2022/07/04 14:02:59;;;;;;;48.90;21.17;;;;;;;;;;5074675;28;20019;-77
2022/07/04 14:05:26;;;;;;;47.22;20.60;;;;;;;;;;5073128;28;20029;-79
2022/07/04 14:07:52;;;;;;;42.70;16.17;;;;;;;;;;5076424;28;20024;-78
2022/07/04 14:10:19;;;;;;;46.70;20.25;;;;;;;;;;5074930;28;20016;-77
2022/07/04 14:12:45;;;;;;;39.13;17.67;;;;;;;;;;5073977;28;20043;-76
2022/07/04 14:15:12;;;;;;;45.17;17.02;;;;;;;;;;5075896;28;20028;-77
2022/07/04 14:17:38;;;;;;;44.85;19.58;;;;;;;;;;5074483;28;20543;-78
2022/07/04 14:20:05;;;;;;;43.25;18.80;;;;;;;;;;5074563;28;20100;-77
2022/07/04 14:22:32;;;;;;;45.63;21.15;;;;;;;;;;5075776;28;20059;-77
2022/07/04 14:24:58;;;;;;;47.95;20.25;;;;;;;;;;5075440;28;20471;-77
2022/07/04 14:27:24;;;;;;;47.85;25.92;;;;;;;;;;5075423;28;20064;-75
2022/07/04 14:29:50;;;;;;;46.17;19.85;;;;;;;;;;5076042;28;20024;-76
2022/07/04 14:32:16;;;;;;;182.60;164.27;;;;;;;;;;5074733;28;20021;-75
2022/07/04 14:34:43;;;;;;;270.55;220.52;;;;;;;;;;5075600;28;20092;-75
2022/07/04 14:37:09;;;;;;;71.40;29.10;;;;;;;;;;5075793;28;20024;-75
2022/07/04 14:39:35;;;;;;;46.13;21.10;;;;;;;;;;5075373;28;20374;-76
2022/07/04 14:42:01;;;;;;;52.03;27.35;;;;;;;;;;5075454;28;20038;-78
2022/07/04 14:44:28;;;;;;;56.88;29.95;;;;;;;;;;5075985;28;20029;-77
2022/07/04 14:46:54;;;;;;;58.70;26.08;;;;;;;;;;5073868;28;20108;-76